sensor_id;sensor_type;location;lat;lon;timestamp;temperature;humidity
43520;DHT22;46848;51.980;5.918;2023-07-09T00:01:15;27.30;58.00
43520;DHT22;46848;51.980;5.918;2023-07-09T00:03:46;27.30;58.10
43520;DHT22;46848;51.980;5.918;2023-07-09T00:06:17;27.30;58.10
43520;DHT22;46848;51.980;5.918;2023-07-09T00:08:44;27.30;58.20
43520;DHT22;46848;51.980;5.918;2023-07-09T00:11:12;27.30;58.20
43520;DHT22;46848;51.980;5.918;2023-07-09T00:13:38;27.20;58.20
43520;DHT22;46848;51.980;5.918;2023-07-09T00:16:11;27.20;58.10
43520;DHT22;46848;51.980;5.918;2023-07-09T00:18:37;27.20;58.20
43520;DHT22;46848;51.980;5.918;2023-07-09T00:21:02;27.20;58.20
43520;DHT22;46848;51.980;5.918;2023-07-09T00:23:28;27.20;58.30
43520;DHT22;46848;51.980;5.918;2023-07-09T00:25:55;27.10;58.30
43520;DHT22;46848;51.980;5.918;2023-07-09T00:28:21;27.10;58.40
43520;DHT22;46848;51.980;5.918;2023-07-09T00:30:47;27.10;58.40
43520;DHT22;46848;51.980;5.918;2023-07-09T00:33:15;27.10;58.50
43520;DHT22;46848;51.980;5.918;2023-07-09T00:35:42;27.10;58.60
43520;DHT22;46848;51.980;5.918;2023-07-09T00:38:14;27.10;58.60
43520;DHT22;46848;51.980;5.918;2023-07-09T00:40:56;27.00;58.70
43520;DHT22;46848;51.980;5.918;2023-07-09T00:43:29;27.00;58.70
43520;DHT22;46848;51.980;5.918;2023-07-09T00:48:54;27.00;58.80
43520;DHT22;46848;51.980;5.918;2023-07-09T00:51:25;26.90;58.90
43520;DHT22;46848;51.980;5.918;2023-07-09T00:53:57;26.90;59.10
43520;DHT22;46848;51.980;5.918;2023-07-09T00:56:37;26.80;59.10
43520;DHT22;46848;51.980;5.918;2023-07-09T00:59:07;26.80;59.30
43520;DHT22;46848;51.980;5.918;2023-07-09T01:01:36;26.70;59.20
43520;DHT22;46848;51.980;5.918;2023-07-09T01:04:05;26.70;59.80
43520;DHT22;46848;51.980;5.918;2023-07-09T01:06:40;26.80;59.30
43520;DHT22;46848;51.980;5.918;2023-07-09T01:09:07;26.70;59.40
43520;DHT22;46848;51.980;5.918;2023-07-09T01:11:33;26.70;59.50
43520;DHT22;46848;51.980;5.918;2023-07-09T01:14:01;26.70;59.50
43520;DHT22;46848;51.980;5.918;2023-07-09T01:16:34;26.70;59.60
43520;DHT22;46848;51.980;5.918;2023-07-09T01:19:03;26.70;59.80
43520;DHT22;46848;51.980;5.918;2023-07-09T01:21:30;26.60;59.80
43520;DHT22;46848;51.980;5.918;2023-07-09T01:23:56;26.60;59.80
43520;DHT22;46848;51.980;5.918;2023-07-09T01:26:26;26.60;59.80
43520;DHT22;46848;51.980;5.918;2023-07-09T01:28:53;26.60;59.90
43520;DHT22;46848;51.980;5.918;2023-07-09T01:31:19;26.60;60.00
43520;DHT22;46848;51.980;5.918;2023-07-09T01:33:46;26.50;60.00
43520;DHT22;46848;51.980;5.918;2023-07-09T01:36:21;26.50;60.10
43520;DHT22;46848;51.980;5.918;2023-07-09T01:38:52;26.50;60.30
43520;DHT22;46848;51.980;5.918;2023-07-09T01:41:19;26.50;60.30
43520;DHT22;46848;51.980;5.918;2023-07-09T01:43:45;26.40;60.40
43520;DHT22;46848;51.980;5.918;2023-07-09T01:46:11;26.40;61.20
43520;DHT22;46848;51.980;5.918;2023-07-09T01:48:40;26.30;60.80
43520;DHT22;46848;51.980;5.918;2023-07-09T01:51:12;26.30;60.80
43520;DHT22;46848;51.980;5.918;2023-07-09T01:53:40;26.30;61.00
43520;DHT22;46848;51.980;5.918;2023-07-09T01:56:05;26.30;61.10
43520;DHT22;46848;51.980;5.918;2023-07-09T01:58:35;26.20;61.10
43520;DHT22;46848;51.980;5.918;2023-07-09T02:01:00;26.20;61.20
43520;DHT22;46848;51.980;5.918;2023-07-09T02:03:26;26.20;61.20
43520;DHT22;46848;51.980;5.918;2023-07-09T02:05:55;26.10;61.30
43520;DHT22;46848;51.980;5.918;2023-07-09T02:08:23;26.10;61.50
43520;DHT22;46848;51.980;5.918;2023-07-09T02:10:49;26.10;61.50
43520;DHT22;46848;51.980;5.918;2023-07-09T02:13:15;26.10;61.60
43520;DHT22;46848;51.980;5.918;2023-07-09T02:15:43;26.00;61.70
43520;DHT22;46848;51.980;5.918;2023-07-09T02:18:10;26.10;62.40
43520;DHT22;46848;51.980;5.918;2023-07-09T02:20:35;26.00;61.80
43520;DHT22;46848;51.980;5.918;2023-07-09T02:23:02;26.00;61.80
43520;DHT22;46848;51.980;5.918;2023-07-09T02:25:28;26.00;61.80
43520;DHT22;46848;51.980;5.918;2023-07-09T02:27:53;26.00;61.80
43520;DHT22;46848;51.980;5.918;2023-07-09T02:30:19;26.00;61.80
43520;DHT22;46848;51.980;5.918;2023-07-09T02:32:44;26.00;61.90
43520;DHT22;46848;51.980;5.918;2023-07-09T02:35:10;26.00;62.00
43520;DHT22;46848;51.980;5.918;2023-07-09T02:37:36;26.00;62.00
43520;DHT22;46848;51.980;5.918;2023-07-09T02:40:03;25.90;62.00
43520;DHT22;46848;51.980;5.918;2023-07-09T02:42:29;25.90;62.10
43520;DHT22;46848;51.980;5.918;2023-07-09T02:44:55;25.90;62.10
43520;DHT22;46848;51.980;5.918;2023-07-09T02:47:20;25.80;62.20
43520;DHT22;46848;51.980;5.918;2023-07-09T02:49:46;25.80;62.20
43520;DHT22;46848;51.980;5.918;2023-07-09T02:52:12;25.80;62.30
43520;DHT22;46848;51.980;5.918;2023-07-09T02:54:37;25.80;62.40
43520;DHT22;46848;51.980;5.918;2023-07-09T02:57:03;25.70;62.50
43520;DHT22;46848;51.980;5.918;2023-07-09T02:59:29;25.70;62.60
43520;DHT22;46848;51.980;5.918;2023-07-09T03:01:55;25.60;62.70
43520;DHT22;46848;51.980;5.918;2023-07-09T03:04:21;25.60;62.90
43520;DHT22;46848;51.980;5.918;2023-07-09T03:06:47;25.60;62.90
43520;DHT22;46848;51.980;5.918;2023-07-09T03:09:13;25.60;63.00
43520;DHT22;46848;51.980;5.918;2023-07-09T03:11:38;25.50;63.60
43520;DHT22;46848;51.980;5.918;2023-07-09T03:14:04;25.50;63.00
43520;DHT22;46848;51.980;5.918;2023-07-09T03:16:32;25.50;63.10
43520;DHT22;46848;51.980;5.918;2023-07-09T03:18:59;25.50;63.20
43520;DHT22;46848;51.980;5.918;2023-07-09T03:21:26;25.40;63.30
43520;DHT22;46848;51.980;5.918;2023-07-09T03:23:53;25.40;63.30
43520;DHT22;46848;51.980;5.918;2023-07-09T03:26:19;25.40;63.30
43520;DHT22;46848;51.980;5.918;2023-07-09T03:28:44;25.40;63.30
43520;DHT22;46848;51.980;5.918;2023-07-09T03:31:10;25.40;63.40
43520;DHT22;46848;51.980;5.918;2023-07-09T03:33:36;25.30;63.40
43520;DHT22;46848;51.980;5.918;2023-07-09T03:36:02;25.30;63.40
43520;DHT22;46848;51.980;5.918;2023-07-09T03:38:29;25.30;63.50
43520;DHT22;46848;51.980;5.918;2023-07-09T03:40:55;25.30;64.10
43520;DHT22;46848;51.980;5.918;2023-07-09T03:43:22;25.40;63.60
43520;DHT22;46848;51.980;5.918;2023-07-09T03:45:48;25.30;63.50
43520;DHT22;46848;51.980;5.918;2023-07-09T03:48:15;25.30;63.50
43520;DHT22;46848;51.980;5.918;2023-07-09T03:50:42;25.30;63.50
43520;DHT22;46848;51.980;5.918;2023-07-09T03:53:09;25.30;63.50
43520;DHT22;46848;51.980;5.918;2023-07-09T03:55:35;25.30;63.70
43520;DHT22;46848;51.980;5.918;2023-07-09T03:58:00;25.20;64.10
43520;DHT22;46848;51.980;5.918;2023-07-09T04:00:28;25.20;63.80
43520;DHT22;46848;51.980;5.918;2023-07-09T04:02:54;25.20;63.90
43520;DHT22;46848;51.980;5.918;2023-07-09T04:05:25;25.10;64.00
43520;DHT22;46848;51.980;5.918;2023-07-09T04:07:51;25.10;64.10
43520;DHT22;46848;51.980;5.918;2023-07-09T04:10:17;25.10;64.10
43520;DHT22;46848;51.980;5.918;2023-07-09T04:12:43;25.10;64.20
43520;DHT22;46848;51.980;5.918;2023-07-09T04:15:09;25.10;64.40
43520;DHT22;46848;51.980;5.918;2023-07-09T04:17:39;25.00;64.40
43520;DHT22;46848;51.980;5.918;2023-07-09T04:20:05;25.00;64.60
43520;DHT22;46848;51.980;5.918;2023-07-09T04:22:32;25.00;64.70
43520;DHT22;46848;51.980;5.918;2023-07-09T04:24:59;25.00;64.80
43520;DHT22;46848;51.980;5.918;2023-07-09T04:27:24;24.90;64.80
43520;DHT22;46848;51.980;5.918;2023-07-09T04:29:53;25.00;64.70
43520;DHT22;46848;51.980;5.918;2023-07-09T04:32:19;25.00;64.70
43520;DHT22;46848;51.980;5.918;2023-07-09T04:34:45;25.00;64.70
43520;DHT22;46848;51.980;5.918;2023-07-09T04:37:12;25.10;64.60
43520;DHT22;46848;51.980;5.918;2023-07-09T04:39:38;25.10;64.70
43520;DHT22;46848;51.980;5.918;2023-07-09T04:42:05;25.10;64.70
43520;DHT22;46848;51.980;5.918;2023-07-09T04:44:31;25.10;64.70
43520;DHT22;46848;51.980;5.918;2023-07-09T04:46:57;25.10;64.70
43520;DHT22;46848;51.980;5.918;2023-07-09T04:49:22;25.10;64.70
43520;DHT22;46848;51.980;5.918;2023-07-09T04:51:48;25.10;64.80
43520;DHT22;46848;51.980;5.918;2023-07-09T04:54:14;25.10;64.90
43520;DHT22;46848;51.980;5.918;2023-07-09T04:56:41;25.10;65.00
43520;DHT22;46848;51.980;5.918;2023-07-09T04:59:09;25.10;65.00
43520;DHT22;46848;51.980;5.918;2023-07-09T05:01:35;25.10;65.00
43520;DHT22;46848;51.980;5.918;2023-07-09T05:04:00;25.20;65.60
43520;DHT22;46848;51.980;5.918;2023-07-09T05:06:26;25.20;65.00
43520;DHT22;46848;51.980;5.918;2023-07-09T05:08:52;25.20;65.00
43520;DHT22;46848;51.980;5.918;2023-07-09T05:11:17;25.20;64.90
43520;DHT22;46848;51.980;5.918;2023-07-09T05:13:43;25.20;64.90
43520;DHT22;46848;51.980;5.918;2023-07-09T05:16:08;25.30;65.00
43520;DHT22;46848;51.980;5.918;2023-07-09T05:18:34;25.30;64.90
43520;DHT22;46848;51.980;5.918;2023-07-09T05:21:00;25.30;64.90
43520;DHT22;46848;51.980;5.918;2023-07-09T05:23:25;25.30;64.90
43520;DHT22;46848;51.980;5.918;2023-07-09T05:25:58;25.40;64.90
43520;DHT22;46848;51.980;5.918;2023-07-09T05:28:24;25.40;64.90
43520;DHT22;46848;51.980;5.918;2023-07-09T05:30:50;25.40;64.80
43520;DHT22;46848;51.980;5.918;2023-07-09T05:33:17;25.50;64.70
43520;DHT22;46848;51.980;5.918;2023-07-09T05:35:44;25.50;65.30
43520;DHT22;46848;51.980;5.918;2023-07-09T05:38:10;25.60;64.70
43520;DHT22;46848;51.980;5.918;2023-07-09T05:40:36;25.70;64.70
43520;DHT22;46848;51.980;5.918;2023-07-09T05:43:01;25.70;64.50
43520;DHT22;46848;51.980;5.918;2023-07-09T05:45:27;25.80;64.40
43520;DHT22;46848;51.980;5.918;2023-07-09T05:47:52;25.90;64.40
43520;DHT22;46848;51.980;5.918;2023-07-09T05:50:18;25.90;64.30
43520;DHT22;46848;51.980;5.918;2023-07-09T05:52:43;26.00;64.10
43520;DHT22;46848;51.980;5.918;2023-07-09T05:55:09;26.10;63.90
43520;DHT22;46848;51.980;5.918;2023-07-09T05:57:35;26.20;63.70
43520;DHT22;46848;51.980;5.918;2023-07-09T06:00:00;26.30;63.60
43520;DHT22;46848;51.980;5.918;2023-07-09T06:02:26;26.50;63.60
43520;DHT22;46848;51.980;5.918;2023-07-09T06:04:51;26.50;63.60
43520;DHT22;46848;51.980;5.918;2023-07-09T06:07:17;26.50;63.50
43520;DHT22;46848;51.980;5.918;2023-07-09T06:09:44;26.60;63.30
43520;DHT22;46848;51.980;5.918;2023-07-09T06:12:11;26.70;63.00
43520;DHT22;46848;51.980;5.918;2023-07-09T06:14:37;26.80;62.90
43520;DHT22;46848;51.980;5.918;2023-07-09T06:17:03;26.90;62.90
43520;DHT22;46848;51.980;5.918;2023-07-09T06:19:29;27.00;62.70
43520;DHT22;46848;51.980;5.918;2023-07-09T06:21:54;27.20;62.50
43520;DHT22;46848;51.980;5.918;2023-07-09T06:24:21;27.30;62.40
43520;DHT22;46848;51.980;5.918;2023-07-09T06:26:47;27.40;62.20
43520;DHT22;46848;51.980;5.918;2023-07-09T06:29:12;27.40;62.10
43520;DHT22;46848;51.980;5.918;2023-07-09T06:31:38;27.50;62.00
43520;DHT22;46848;51.980;5.918;2023-07-09T06:34:05;27.60;61.90
43520;DHT22;46848;51.980;5.918;2023-07-09T06:36:33;27.70;61.60
43520;DHT22;46848;51.980;5.918;2023-07-09T06:38:58;27.80;61.20
43520;DHT22;46848;51.980;5.918;2023-07-09T06:41:24;27.90;60.70
43520;DHT22;46848;51.980;5.918;2023-07-09T06:43:50;28.00;60.40
43520;DHT22;46848;51.980;5.918;2023-07-09T06:46:17;28.10;60.20
43520;DHT22;46848;51.980;5.918;2023-07-09T06:48:43;28.20;60.00
43520;DHT22;46848;51.980;5.918;2023-07-09T06:51:09;28.40;59.80
43520;DHT22;46848;51.980;5.918;2023-07-09T06:53:35;28.50;59.80
43520;DHT22;46848;51.980;5.918;2023-07-09T06:56:01;28.60;59.80
43520;DHT22;46848;51.980;5.918;2023-07-09T06:58:29;28.70;59.60
43520;DHT22;46848;51.980;5.918;2023-07-09T07:00:57;28.90;60.00
43520;DHT22;46848;51.980;5.918;2023-07-09T07:03:23;29.00;59.00
43520;DHT22;46848;51.980;5.918;2023-07-09T07:05:51;29.10;58.70
43520;DHT22;46848;51.980;5.918;2023-07-09T07:08:20;29.30;58.60
43520;DHT22;46848;51.980;5.918;2023-07-09T07:10:50;29.40;58.50
43520;DHT22;46848;51.980;5.918;2023-07-09T07:13:16;29.50;58.30
43520;DHT22;46848;51.980;5.918;2023-07-09T07:15:44;29.60;58.10
43520;DHT22;46848;51.980;5.918;2023-07-09T07:18:10;29.80;58.10
43520;DHT22;46848;51.980;5.918;2023-07-09T07:20:37;29.90;58.00
43520;DHT22;46848;51.980;5.918;2023-07-09T07:23:02;30.00;57.70
43520;DHT22;46848;51.980;5.918;2023-07-09T07:25:28;30.10;57.50
43520;DHT22;46848;51.980;5.918;2023-07-09T07:27:56;30.20;57.10
43520;DHT22;46848;51.980;5.918;2023-07-09T07:30:21;30.30;56.90
43520;DHT22;46848;51.980;5.918;2023-07-09T07:32:47;30.40;56.60
43520;DHT22;46848;51.980;5.918;2023-07-09T07:35:14;30.50;56.50
43520;DHT22;46848;51.980;5.918;2023-07-09T07:37:41;30.70;56.40
43520;DHT22;46848;51.980;5.918;2023-07-09T07:40:08;30.90;56.10
43520;DHT22;46848;51.980;5.918;2023-07-09T07:42:33;31.00;55.90
43520;DHT22;46848;51.980;5.918;2023-07-09T07:44:59;31.10;55.70
43520;DHT22;46848;51.980;5.918;2023-07-09T07:47:25;31.30;55.50
43520;DHT22;46848;51.980;5.918;2023-07-09T07:49:52;31.40;55.20
43520;DHT22;46848;51.980;5.918;2023-07-09T07:52:18;31.60;55.10
43520;DHT22;46848;51.980;5.918;2023-07-09T07:54:44;31.70;54.80
43520;DHT22;46848;51.980;5.918;2023-07-09T07:57:10;31.90;54.50
43520;DHT22;46848;51.980;5.918;2023-07-09T07:59:36;32.00;54.30
43520;DHT22;46848;51.980;5.918;2023-07-09T08:02:04;32.10;53.80
43520;DHT22;46848;51.980;5.918;2023-07-09T08:04:30;32.10;53.30
43520;DHT22;46848;51.980;5.918;2023-07-09T08:06:55;32.20;53.30
43520;DHT22;46848;51.980;5.918;2023-07-09T08:09:21;32.30;53.30
43520;DHT22;46848;51.980;5.918;2023-07-09T08:11:47;32.40;53.30
43520;DHT22;46848;51.980;5.918;2023-07-09T08:14:14;32.50;53.30
43520;DHT22;46848;51.980;5.918;2023-07-09T08:16:40;32.70;53.40
43520;DHT22;46848;51.980;5.918;2023-07-09T08:19:06;32.80;53.40
43520;DHT22;46848;51.980;5.918;2023-07-09T08:21:32;33.00;53.30
43520;DHT22;46848;51.980;5.918;2023-07-09T08:23:57;33.00;52.70
43520;DHT22;46848;51.980;5.918;2023-07-09T08:26:23;33.10;52.70
43520;DHT22;46848;51.980;5.918;2023-07-09T08:28:50;33.20;52.40
43520;DHT22;46848;51.980;5.918;2023-07-09T08:31:16;33.30;52.40
43520;DHT22;46848;51.980;5.918;2023-07-09T08:33:41;33.50;52.40
43520;DHT22;46848;51.980;5.918;2023-07-09T08:36:07;33.60;52.10
43520;DHT22;46848;51.980;5.918;2023-07-09T08:38:33;33.70;51.70
43520;DHT22;46848;51.980;5.918;2023-07-09T08:47:06;34.00;49.80
43520;DHT22;46848;51.980;5.918;2023-07-09T08:49:47;34.20;50.10
43520;DHT22;46848;51.980;5.918;2023-07-09T08:52:31;34.30;49.60
43520;DHT22;46848;51.980;5.918;2023-07-09T08:55:04;34.40;49.30
43520;DHT22;46848;51.980;5.918;2023-07-09T08:57:40;34.60;49.20
43520;DHT22;46848;51.980;5.918;2023-07-09T09:02:55;34.80;48.70
43520;DHT22;46848;51.980;5.918;2023-07-09T09:05:23;34.90;48.40
43520;DHT22;46848;51.980;5.918;2023-07-09T09:08:02;34.90;48.30
43520;DHT22;46848;51.980;5.918;2023-07-09T09:10:48;35.00;47.90
43520;DHT22;46848;51.980;5.918;2023-07-09T09:13:20;35.20;47.80
43520;DHT22;46848;51.980;5.918;2023-07-09T09:15:48;35.30;47.90
43520;DHT22;46848;51.980;5.918;2023-07-09T09:18:24;35.30;47.80
43520;DHT22;46848;51.980;5.918;2023-07-09T09:21:01;35.40;47.30
43520;DHT22;46848;51.980;5.918;2023-07-09T09:23:43;35.50;47.10
43520;DHT22;46848;51.980;5.918;2023-07-09T09:26:32;35.60;47.00
43520;DHT22;46848;51.980;5.918;2023-07-09T09:28:58;35.60;46.90
43520;DHT22;46848;51.980;5.918;2023-07-09T09:31:27;35.70;46.70
43520;DHT22;46848;51.980;5.918;2023-07-09T09:33:53;35.70;46.50
43520;DHT22;46848;51.980;5.918;2023-07-09T09:36:24;35.80;46.70
43520;DHT22;46848;51.980;5.918;2023-07-09T09:38:51;35.90;46.70
43520;DHT22;46848;51.980;5.918;2023-07-09T09:41:19;36.10;46.50
43520;DHT22;46848;51.980;5.918;2023-07-09T09:43:47;36.20;45.90
43520;DHT22;46848;51.980;5.918;2023-07-09T09:46:22;36.20;45.70
43520;DHT22;46848;51.980;5.918;2023-07-09T09:48:50;36.10;45.40
43520;DHT22;46848;51.980;5.918;2023-07-09T09:51:17;36.10;45.20
43520;DHT22;46848;51.980;5.918;2023-07-09T09:53:58;36.20;45.10
43520;DHT22;46848;51.980;5.918;2023-07-09T09:58:53;36.10;44.90
43520;DHT22;46848;51.980;5.918;2023-07-09T10:01:31;36.20;44.60
43520;DHT22;46848;51.980;5.918;2023-07-09T10:03:59;36.40;44.60
43520;DHT22;46848;51.980;5.918;2023-07-09T10:09:26;36.70;44.40
43520;DHT22;46848;51.980;5.918;2023-07-09T10:12:00;36.80;44.20
43520;DHT22;46848;51.980;5.918;2023-07-09T10:14:36;36.90;44.20
43520;DHT22;46848;51.980;5.918;2023-07-09T10:25:29;37.20;43.90
43520;DHT22;46848;51.980;5.918;2023-07-09T10:33:27;37.50;43.00
43520;DHT22;46848;51.980;5.918;2023-07-09T10:41:10;37.60;42.10
43520;DHT22;46848;51.980;5.918;2023-07-09T10:43:54;37.70;42.10
43520;DHT22;46848;51.980;5.918;2023-07-09T10:46:28;37.80;41.80
43520;DHT22;46848;51.980;5.918;2023-07-09T10:48:56;37.80;41.70
43520;DHT22;46848;51.980;5.918;2023-07-09T10:51:41;37.90;41.40
43520;DHT22;46848;51.980;5.918;2023-07-09T10:54:31;38.00;41.20
43520;DHT22;46848;51.980;5.918;2023-07-09T10:57:11;38.00;41.00
43520;DHT22;46848;51.980;5.918;2023-07-09T10:59:41;37.90;41.10
43520;DHT22;46848;51.980;5.918;2023-07-09T11:04:55;38.00;40.90
43520;DHT22;46848;51.980;5.918;2023-07-09T11:09:53;38.00;40.80
43520;DHT22;46848;51.980;5.918;2023-07-09T11:12:39;38.00;40.90
43520;DHT22;46848;51.980;5.918;2023-07-09T11:15:08;38.00;40.70
43520;DHT22;46848;51.980;5.918;2023-07-09T11:17:40;38.10;40.80
43520;DHT22;46848;51.980;5.918;2023-07-09T11:20:18;38.20;41.30
43520;DHT22;46848;51.980;5.918;2023-07-09T11:22:54;38.30;40.40
43520;DHT22;46848;51.980;5.918;2023-07-09T11:25:31;38.30;40.50
43520;DHT22;46848;51.980;5.918;2023-07-09T11:28:05;38.20;40.40
43520;DHT22;46848;51.980;5.918;2023-07-09T11:30:31;38.20;40.70
43520;DHT22;46848;51.980;5.918;2023-07-09T11:33:04;38.20;41.00
43520;DHT22;46848;51.980;5.918;2023-07-09T11:35:49;38.20;40.50
43520;DHT22;46848;51.980;5.918;2023-07-09T11:38:18;38.10;40.20
43520;DHT22;46848;51.980;5.918;2023-07-09T11:40:52;38.10;40.80
43520;DHT22;46848;51.980;5.918;2023-07-09T11:43:28;38.20;40.60
43520;DHT22;46848;51.980;5.918;2023-07-09T11:45:55;38.20;40.40
43520;DHT22;46848;51.980;5.918;2023-07-09T11:48:25;38.20;40.20
43520;DHT22;46848;51.980;5.918;2023-07-09T11:50:53;38.30;40.10
43520;DHT22;46848;51.980;5.918;2023-07-09T11:53:35;38.30;40.00
43520;DHT22;46848;51.980;5.918;2023-07-09T11:56:03;38.30;39.60
43520;DHT22;46848;51.980;5.918;2023-07-09T11:58:29;38.20;40.20
43520;DHT22;46848;51.980;5.918;2023-07-09T12:00:57;38.20;40.40
43520;DHT22;46848;51.980;5.918;2023-07-09T12:03:26;38.20;40.50
43520;DHT22;46848;51.980;5.918;2023-07-09T12:06:20;38.00;40.40
43520;DHT22;46848;51.980;5.918;2023-07-09T12:08:47;37.80;40.30
43520;DHT22;46848;51.980;5.918;2023-07-09T12:11:33;37.80;40.80
43520;DHT22;46848;51.980;5.918;2023-07-09T12:14:04;37.60;41.10
43520;DHT22;46848;51.980;5.918;2023-07-09T12:16:31;37.40;41.40
43520;DHT22;46848;51.980;5.918;2023-07-09T12:18:58;37.40;41.50
43520;DHT22;46848;51.980;5.918;2023-07-09T12:21:24;37.40;41.60
43520;DHT22;46848;51.980;5.918;2023-07-09T12:23:51;37.10;41.20
43520;DHT22;46848;51.980;5.918;2023-07-09T12:26:19;37.00;41.60
43520;DHT22;46848;51.980;5.918;2023-07-09T12:28:52;36.90;41.80
43520;DHT22;46848;51.980;5.918;2023-07-09T12:31:21;36.80;41.40
43520;DHT22;46848;51.980;5.918;2023-07-09T12:33:52;36.60;41.20
43520;DHT22;46848;51.980;5.918;2023-07-09T12:36:19;36.50;41.30
43520;DHT22;46848;51.980;5.918;2023-07-09T12:38:48;36.40;41.70
43520;DHT22;46848;51.980;5.918;2023-07-09T12:41:45;36.30;42.00
43520;DHT22;46848;51.980;5.918;2023-07-09T12:44:18;36.20;41.70
43520;DHT22;46848;51.980;5.918;2023-07-09T12:46:45;36.10;42.20
43520;DHT22;46848;51.980;5.918;2023-07-09T12:49:23;36.00;42.40
43520;DHT22;46848;51.980;5.918;2023-07-09T12:51:49;36.00;42.70
43520;DHT22;46848;51.980;5.918;2023-07-09T12:54:17;35.90;42.40
43520;DHT22;46848;51.980;5.918;2023-07-09T12:56:44;35.90;42.80
43520;DHT22;46848;51.980;5.918;2023-07-09T12:59:19;35.90;42.80
43520;DHT22;46848;51.980;5.918;2023-07-09T13:04:33;35.90;42.70
43520;DHT22;46848;51.980;5.918;2023-07-09T13:07:00;35.90;42.90
43520;DHT22;46848;51.980;5.918;2023-07-09T13:09:26;35.90;43.00
43520;DHT22;46848;51.980;5.918;2023-07-09T13:11:54;36.00;42.80
43520;DHT22;46848;51.980;5.918;2023-07-09T13:14:29;36.00;42.50
43520;DHT22;46848;51.980;5.918;2023-07-09T13:17:06;36.10;42.50
43520;DHT22;46848;51.980;5.918;2023-07-09T13:19:33;36.30;42.70
43520;DHT22;46848;51.980;5.918;2023-07-09T13:21:59;36.40;42.50
43520;DHT22;46848;51.980;5.918;2023-07-09T13:24:27;36.50;42.30
43520;DHT22;46848;51.980;5.918;2023-07-09T13:26:53;36.60;42.00
43520;DHT22;46848;51.980;5.918;2023-07-09T13:29:20;36.60;41.80
43520;DHT22;46848;51.980;5.918;2023-07-09T13:31:46;36.60;41.70
43520;DHT22;46848;51.980;5.918;2023-07-09T13:34:22;36.70;42.10
43520;DHT22;46848;51.980;5.918;2023-07-09T13:36:48;36.60;42.80
43520;DHT22;46848;51.980;5.918;2023-07-09T13:39:15;36.50;43.40
43520;DHT22;46848;51.980;5.918;2023-07-09T13:41:43;36.40;43.70
43520;DHT22;46848;51.980;5.918;2023-07-09T13:44:16;36.30;43.90
43520;DHT22;46848;51.980;5.918;2023-07-09T13:46:42;36.30;44.10
43520;DHT22;46848;51.980;5.918;2023-07-09T13:49:15;36.20;44.20
43520;DHT22;46848;51.980;5.918;2023-07-09T13:51:46;36.10;44.20
43520;DHT22;46848;51.980;5.918;2023-07-09T13:54:16;35.90;44.10
43520;DHT22;46848;51.980;5.918;2023-07-09T13:56:45;35.80;44.20
43520;DHT22;46848;51.980;5.918;2023-07-09T13:59:20;35.80;44.50
43520;DHT22;46848;51.980;5.918;2023-07-09T14:01:47;35.70;44.60
43520;DHT22;46848;51.980;5.918;2023-07-09T14:04:15;35.50;44.90
43520;DHT22;46848;51.980;5.918;2023-07-09T14:06:41;35.40;45.30
43520;DHT22;46848;51.980;5.918;2023-07-09T14:09:09;35.30;45.60
43520;DHT22;46848;51.980;5.918;2023-07-09T14:11:44;35.20;46.00
43520;DHT22;46848;51.980;5.918;2023-07-09T14:14:23;35.10;46.40
43520;DHT22;46848;51.980;5.918;2023-07-09T14:16:50;34.90;46.80
43520;DHT22;46848;51.980;5.918;2023-07-09T14:19:19;34.80;47.20
43520;DHT22;46848;51.980;5.918;2023-07-09T14:21:46;34.70;47.40
43520;DHT22;46848;51.980;5.918;2023-07-09T14:24:24;34.40;47.50
43520;DHT22;46848;51.980;5.918;2023-07-09T14:26:56;34.40;47.90
43520;DHT22;46848;51.980;5.918;2023-07-09T14:29:23;34.10;48.10
43520;DHT22;46848;51.980;5.918;2023-07-09T14:31:49;34.00;48.30
43520;DHT22;46848;51.980;5.918;2023-07-09T14:36:44;33.50;48.40
43520;DHT22;46848;51.980;5.918;2023-07-09T14:39:10;33.40;48.50
43520;DHT22;46848;51.980;5.918;2023-07-09T14:41:36;33.30;48.40
43520;DHT22;46848;51.980;5.918;2023-07-09T14:44:02;33.10;48.40
43520;DHT22;46848;51.980;5.918;2023-07-09T14:46:28;33.10;48.60
43520;DHT22;46848;51.980;5.918;2023-07-09T14:48:54;33.00;48.70
43520;DHT22;46848;51.980;5.918;2023-07-09T14:51:20;32.80;48.80
43520;DHT22;46848;51.980;5.918;2023-07-09T14:53:45;32.80;49.00
43520;DHT22;46848;51.980;5.918;2023-07-09T14:56:13;32.60;49.20
43520;DHT22;46848;51.980;5.918;2023-07-09T14:58:39;32.50;49.50
43520;DHT22;46848;51.980;5.918;2023-07-09T15:01:13;32.40;49.70
43520;DHT22;46848;51.980;5.918;2023-07-09T15:03:39;32.20;49.90
43520;DHT22;46848;51.980;5.918;2023-07-09T15:06:04;31.90;50.40
43520;DHT22;46848;51.980;5.918;2023-07-09T15:08:30;31.60;51.30
43520;DHT22;46848;51.980;5.918;2023-07-09T15:10:56;31.30;52.00
43520;DHT22;46848;51.980;5.918;2023-07-09T15:15:57;30.90;53.90
43520;DHT22;46848;51.980;5.918;2023-07-09T15:18:23;30.70;54.30
43520;DHT22;46848;51.980;5.918;2023-07-09T15:20:55;30.50;55.10
43520;DHT22;46848;51.980;5.918;2023-07-09T15:23:22;30.30;55.80
43520;DHT22;46848;51.980;5.918;2023-07-09T15:25:49;30.10;56.10
43520;DHT22;46848;51.980;5.918;2023-07-09T15:28:15;30.00;56.90
43520;DHT22;46848;51.980;5.918;2023-07-09T15:30:41;29.90;57.00
43520;DHT22;46848;51.980;5.918;2023-07-09T15:33:17;29.70;57.20
43520;DHT22;46848;51.980;5.918;2023-07-09T15:35:46;29.60;57.40
43520;DHT22;46848;51.980;5.918;2023-07-09T15:38:28;29.60;58.00
43520;DHT22;46848;51.980;5.918;2023-07-09T15:40:54;29.60;57.60
43520;DHT22;46848;51.980;5.918;2023-07-09T15:43:20;29.50;57.70
43520;DHT22;46848;51.980;5.918;2023-07-09T15:45:49;29.40;58.10
43520;DHT22;46848;51.980;5.918;2023-07-09T15:48:32;29.30;58.50
43520;DHT22;46848;51.980;5.918;2023-07-09T15:50:58;29.30;59.50
43520;DHT22;46848;51.980;5.918;2023-07-09T15:53:25;29.20;60.00
43520;DHT22;46848;51.980;5.918;2023-07-09T15:55:58;29.10;60.10
43520;DHT22;46848;51.980;5.918;2023-07-09T15:58:27;28.90;61.40
43520;DHT22;46848;51.980;5.918;2023-07-09T16:00:53;28.70;61.50
43520;DHT22;46848;51.980;5.918;2023-07-09T16:03:19;28.60;62.20
43520;DHT22;46848;51.980;5.918;2023-07-09T16:05:44;28.50;62.60
43520;DHT22;46848;51.980;5.918;2023-07-09T16:08:11;28.50;63.20
43520;DHT22;46848;51.980;5.918;2023-07-09T16:10:37;28.40;62.90
43520;DHT22;46848;51.980;5.918;2023-07-09T16:13:08;28.50;62.30
43520;DHT22;46848;51.980;5.918;2023-07-09T16:15:38;28.60;62.00
43520;DHT22;46848;51.980;5.918;2023-07-09T16:18:07;28.70;62.20
43520;DHT22;46848;51.980;5.918;2023-07-09T16:20:34;28.70;62.50
43520;DHT22;46848;51.980;5.918;2023-07-09T16:23:00;28.70;62.00
43520;DHT22;46848;51.980;5.918;2023-07-09T16:25:33;28.80;62.00
43520;DHT22;46848;51.980;5.918;2023-07-09T16:28:02;28.80;62.10